PWSweather.com
Personal Weather Stations
Station Observations
W7JKG
Phoenix, AZ 85032-2083

Phoenix, AZ 85032-2083

Lat: 33.645544, Lon: -112.007099

Elevation: 1474

Station Type: Davis Vantage Pro2 Wireless

http://tiggrweather.net/

High Low Average
Temperature 100.5°F38.1°C 75.5°F24.2°C 87.3°F30.7°C
Dew Point 71.7°F22.1°C 62.8°F17.1°C 67.1°F19.5°C
Winds 5.8 mph 9.3 kmh Calm Calm 3.0 mph S4.8 kmh S
Wind Gusts 11.5 mph18.5 kmh -- 5.0 mph8.0 kmh
Humidity 88% 30% 54%
Pressure 30.01 in1016.3 mb 29.84 in1010.5 mb -
Precipitation 0.63 in16.0 mm - -
Hour Temp Dew Point Humidity Winds Wind Gusts Pressure Precip Precip Rate Daily Precip Total
12:00 AM 84.3°F29.1°C 66.9°F19.4°C 56% 1.2 mph E1.9 kmh E 3.5 mph5.6 kmh 29.99 in1015.6 mb - 0.00 in0.0 mm 0.00 in0.0 mm
01:00 AM 83.4°F28.6°C 66.6°F19.2°C 57% Calm Calm -- 29.98 in1015.2 mb - 0.00 in0.0 mm 0.00 in0.0 mm
02:00 AM 81.8°F27.7°C 67.0°F19.4°C 61% Calm Calm 1.2 mph1.9 kmh 29.98 in1015.2 mb - 0.00 in0.0 mm 0.00 in0.0 mm
03:00 AM 82.6°F28.1°C 67.3°F19.6°C 60% Calm Calm 1.2 mph1.9 kmh 29.98 in1015.2 mb - 0.00 in0.0 mm 0.00 in0.0 mm
04:00 AM 83.1°F28.4°C 66.8°F19.3°C 58% 2.3 mph SE3.7 kmh SE 5.8 mph9.3 kmh 29.98 in1015.2 mb - 0.00 in0.0 mm 0.00 in0.0 mm
05:00 AM 82.8°F28.2°C 67.0°F19.4°C 59% 3.5 mph SE5.6 kmh SE 4.6 mph7.4 kmh 29.98 in1015.2 mb - 0.00 in0.0 mm 0.00 in0.0 mm
06:00 AM 82.7°F28.2°C 67.4°F19.7°C 60% 2.3 mph ESE3.7 kmh ESE 3.5 mph5.6 kmh 29.99 in1015.6 mb - 0.00 in0.0 mm 0.00 in0.0 mm
07:00 AM 83.5°F28.6°C 67.7°F19.8°C 59% 2.3 mph E3.7 kmh E 4.6 mph7.4 kmh 30.00 in1015.9 mb - 0.00 in0.0 mm 0.00 in0.0 mm
08:00 AM 86.1°F30.1°C 68.0°F20.0°C 55% 3.5 mph S5.6 kmh S 5.8 mph9.3 kmh 29.99 in1015.6 mb - 0.00 in0.0 mm 0.00 in0.0 mm
09:00 AM 88.0°F31.1°C 67.0°F19.4°C 50% 3.5 mph S5.6 kmh S 4.6 mph7.4 kmh 30.01 in1016.3 mb - 0.00 in0.0 mm 0.00 in0.0 mm
10:00 AM 91.7°F33.2°C 66.7°F19.3°C 44% 4.6 mph E7.4 kmh E 6.9 mph11.1 kmh 29.99 in1015.6 mb - 0.00 in0.0 mm 0.00 in0.0 mm
11:00 AM 93.8°F34.3°C 65.8°F18.8°C 40% 2.3 mph S3.7 kmh S 4.6 mph7.4 kmh 29.99 in1015.6 mb - 0.00 in0.0 mm 0.00 in0.0 mm
12:00 PM 96.7°F35.9°C 62.8°F17.1°C 33% 2.3 mph SE3.7 kmh SE 8.1 mph13.0 kmh 29.95 in1014.2 mb - 0.00 in0.0 mm 0.00 in0.0 mm
01:00 PM 96.8°F36.0°C 63.8°F17.7°C 34% 3.5 mph SE5.6 kmh SE 4.6 mph7.4 kmh 29.92 in1013.2 mb - 0.00 in0.0 mm 0.00 in0.0 mm
02:00 PM 98.6°F37.0°C 62.8°F17.1°C 31% 5.8 mph SSE9.3 kmh SSE 8.1 mph13.0 kmh 29.89 in1012.2 mb - 0.00 in0.0 mm 0.00 in0.0 mm
03:00 PM 100.5°F38.1°C 63.4°F17.4°C 30% 4.6 mph S7.4 kmh S 4.6 mph7.4 kmh 29.87 in1011.5 mb - 0.00 in0.0 mm 0.00 in0.0 mm
04:00 PM 98.3°F36.8°C 63.3°F17.4°C 32% 2.3 mph SSW3.7 kmh SSW 5.8 mph9.3 kmh 29.84 in1010.5 mb - 0.00 in0.0 mm 0.00 in0.0 mm
05:00 PM 90.6°F32.6°C 67.6°F19.8°C 47% 5.8 mph E9.3 kmh E 8.1 mph13.0 kmh 29.87 in1011.5 mb - 0.00 in0.0 mm 0.00 in0.0 mm
06:00 PM 91.2°F32.9°C 68.2°F20.1°C 47% 5.8 mph SW9.3 kmh SW 11.5 mph18.5 kmh 29.89 in1012.2 mb - 0.00 in0.0 mm 0.00 in0.0 mm
07:00 PM 82.6°F28.1°C 69.7°F20.9°C 65% 1.2 mph NW1.9 kmh NW 3.5 mph5.6 kmh 29.89 in1012.2 mb - 0.01 in0.3 mm 0.01 in0.3 mm
08:00 PM 83.1°F28.4°C 70.5°F21.4°C 66% 4.6 mph NNE7.4 kmh NNE 5.8 mph9.3 kmh 29.92 in1013.2 mb - 0.00 in0.0 mm 0.01 in0.3 mm
09:00 PM 80.4°F26.9°C 70.1°F21.2°C 71% 4.6 mph N7.4 kmh N 6.9 mph11.1 kmh 29.92 in1013.2 mb - 0.00 in0.0 mm 0.01 in0.3 mm
10:00 PM 76.7°F24.8°C 71.5°F21.9°C 84% 1.2 mph NW1.9 kmh NW 3.5 mph5.6 kmh 29.96 in1014.6 mb - 0.43 in10.9 mm 0.44 in11.2 mm
11:00 PM 75.5°F24.2°C 71.7°F22.1°C 88% Calm Calm -- 29.97 in1014.9 mb - 0.22 in5.6 mm 0.63 in16.0 mm